Terminal Aerodrome Forecast
Issued by NWS Sterling, VA

Current Version | Previous Version | Graphics & Text | Print | Product List | Glossary On
Versions: 1 2 3 4 5 6 7 8 9 10 11 12 13 14 15 16 17 18 19 20 21 22 23 24
000
FTUS41 KLWX 271800 AAA
TAFMRB
TAF AMD
KMRB 271802Z 2718/2818 30011G20KT P6SM -SN SCT025 OVC040
      TEMPO 2718/2719 29010G18KT 3SM -SN BKN030 OVC040
     FM272000 32013G23KT P6SM BKN035
     FM280600 32012G20KT P6SM SCT070=

USA.gov is the U.S. government's official web portal to all federal, state and local government web resources and services.